sensor_id;sensor_type;location;lat;lon;timestamp;P1;durP1;ratioP1;P2;durP2;ratioP2
8413;SDS011;4244;48.684;9.028;2023-05-10T00:00:00;1.73;;;1.50;;
8413;SDS011;4244;48.684;9.028;2023-05-10T00:02:26;1.87;;;1.53;;
8413;SDS011;4244;48.684;9.028;2023-05-10T00:04:52;1.40;;;1.30;;
8413;SDS011;4244;48.684;9.028;2023-05-10T00:07:17;3.13;;;1.70;;
8413;SDS011;4244;48.684;9.028;2023-05-10T00:09:43;3.57;;;1.30;;
8413;SDS011;4244;48.684;9.028;2023-05-10T00:12:09;1.97;;;1.10;;
8413;SDS011;4244;48.684;9.028;2023-05-10T00:14:35;1.47;;;1.27;;
8413;SDS011;4244;48.684;9.028;2023-05-10T00:17:00;2.10;;;1.77;;
8413;SDS011;4244;48.684;9.028;2023-05-10T00:19:26;1.60;;;1.10;;
8413;SDS011;4244;48.684;9.028;2023-05-10T00:21:52;1.40;;;1.00;;
8413;SDS011;4244;48.684;9.028;2023-05-10T00:24:18;1.30;;;0.77;;
8413;SDS011;4244;48.684;9.028;2023-05-10T00:26:44;0.90;;;0.63;;
8413;SDS011;4244;48.684;9.028;2023-05-10T00:29:09;1.20;;;0.57;;
8413;SDS011;4244;48.684;9.028;2023-05-10T00:31:35;0.93;;;0.47;;
8413;SDS011;4244;48.684;9.028;2023-05-10T00:34:00;1.77;;;0.60;;
8413;SDS011;4244;48.684;9.028;2023-05-10T00:36:26;0.80;;;0.50;;
8413;SDS011;4244;48.684;9.028;2023-05-10T00:38:52;0.90;;;0.50;;
8413;SDS011;4244;48.684;9.028;2023-05-10T00:41:18;1.90;;;0.50;;
8413;SDS011;4244;48.684;9.028;2023-05-10T00:43:44;6.13;;;0.83;;
8413;SDS011;4244;48.684;9.028;2023-05-10T00:46:09;2.60;;;0.40;;
8413;SDS011;4244;48.684;9.028;2023-05-10T00:48:35;1.97;;;0.47;;
8413;SDS011;4244;48.684;9.028;2023-05-10T00:51:01;1.03;;;0.60;;
8413;SDS011;4244;48.684;9.028;2023-05-10T00:53:27;0.70;;;0.30;;
8413;SDS011;4244;48.684;9.028;2023-05-10T00:55:55;0.80;;;0.30;;
8413;SDS011;4244;48.684;9.028;2023-05-10T00:58:20;0.70;;;0.40;;
8413;SDS011;4244;48.684;9.028;2023-05-10T01:00:48;1.67;;;0.37;;
8413;SDS011;4244;48.684;9.028;2023-05-10T01:03:14;0.73;;;0.33;;
8413;SDS011;4244;48.684;9.028;2023-05-10T01:05:40;0.70;;;0.30;;
8413;SDS011;4244;48.684;9.028;2023-05-10T01:11:21;3.73;;;0.50;;
8413;SDS011;4244;48.684;9.028;2023-05-10T01:13:47;1.57;;;0.40;;
8413;SDS011;4244;48.684;9.028;2023-05-10T01:16:17;0.90;;;0.40;;
8413;SDS011;4244;48.684;9.028;2023-05-10T01:18:43;0.70;;;0.30;;
8413;SDS011;4244;48.684;9.028;2023-05-10T01:21:21;1.80;;;0.40;;
8413;SDS011;4244;48.684;9.028;2023-05-10T01:24:12;0.80;;;0.40;;
8413;SDS011;4244;48.684;9.028;2023-05-10T01:37:50;1.67;;;0.70;;
8413;SDS011;4244;48.684;9.028;2023-05-10T01:40:26;0.90;;;0.43;;
8413;SDS011;4244;48.684;9.028;2023-05-10T01:43:03;1.00;;;0.60;;
8413;SDS011;4244;48.684;9.028;2023-05-10T01:45:32;0.70;;;0.30;;
8413;SDS011;4244;48.684;9.028;2023-05-10T01:48:06;1.87;;;0.77;;
8413;SDS011;4244;48.684;9.028;2023-05-10T01:50:34;1.20;;;0.50;;
8413;SDS011;4244;48.684;9.028;2023-05-10T01:53:01;1.10;;;0.37;;
8413;SDS011;4244;48.684;9.028;2023-05-10T01:55:32;1.00;;;0.70;;
8413;SDS011;4244;48.684;9.028;2023-05-10T01:58:09;2.60;;;0.60;;
8413;SDS011;4244;48.684;9.028;2023-05-10T02:00:35;2.20;;;0.50;;
8413;SDS011;4244;48.684;9.028;2023-05-10T02:03:04;2.60;;;0.60;;
8413;SDS011;4244;48.684;9.028;2023-05-10T02:05:31;1.17;;;0.70;;
8413;SDS011;4244;48.684;9.028;2023-05-10T02:07:58;0.97;;;0.57;;
8413;SDS011;4244;48.684;9.028;2023-05-10T02:10:26;0.77;;;0.40;;
8413;SDS011;4244;48.684;9.028;2023-05-10T02:12:53;0.87;;;0.50;;
8413;SDS011;4244;48.684;9.028;2023-05-10T02:15:20;1.00;;;0.60;;
8413;SDS011;4244;48.684;9.028;2023-05-10T02:17:48;1.60;;;0.70;;
8413;SDS011;4244;48.684;9.028;2023-05-10T02:20:14;0.80;;;0.50;;
8413;SDS011;4244;48.684;9.028;2023-05-10T02:22:41;0.80;;;0.40;;
8413;SDS011;4244;48.684;9.028;2023-05-10T02:25:07;1.90;;;0.80;;
8413;SDS011;4244;48.684;9.028;2023-05-10T02:27:34;0.93;;;0.63;;
8413;SDS011;4244;48.684;9.028;2023-05-10T02:30:00;0.90;;;0.57;;
8413;SDS011;4244;48.684;9.028;2023-05-10T02:32:26;1.30;;;0.67;;
8413;SDS011;4244;48.684;9.028;2023-05-10T02:34:52;1.00;;;0.87;;
8413;SDS011;4244;48.684;9.028;2023-05-10T02:37:18;1.00;;;0.73;;
8413;SDS011;4244;48.684;9.028;2023-05-10T02:39:49;1.70;;;0.90;;
8413;SDS011;4244;48.684;9.028;2023-05-10T02:42:19;2.10;;;0.80;;
8413;SDS011;4244;48.684;9.028;2023-05-10T02:44:47;1.17;;;0.93;;
8413;SDS011;4244;48.684;9.028;2023-05-10T02:47:15;1.10;;;0.90;;
8413;SDS011;4244;48.684;9.028;2023-05-10T02:49:42;1.60;;;1.30;;
8413;SDS011;4244;48.684;9.028;2023-05-10T02:52:07;1.30;;;1.00;;
8413;SDS011;4244;48.684;9.028;2023-05-10T02:54:45;1.53;;;0.90;;
8413;SDS011;4244;48.684;9.028;2023-05-10T02:57:20;1.37;;;1.03;;
8413;SDS011;4244;48.684;9.028;2023-05-10T02:59:50;1.20;;;0.83;;
8413;SDS011;4244;48.684;9.028;2023-05-10T03:02:16;1.47;;;1.10;;
8413;SDS011;4244;48.684;9.028;2023-05-10T03:04:42;1.00;;;0.77;;
8413;SDS011;4244;48.684;9.028;2023-05-10T03:07:07;1.53;;;1.07;;
8413;SDS011;4244;48.684;9.028;2023-05-10T03:09:33;1.30;;;1.00;;
8413;SDS011;4244;48.684;9.028;2023-05-10T03:14:42;1.60;;;1.17;;
8413;SDS011;4244;48.684;9.028;2023-05-10T03:19:56;1.60;;;1.17;;
8413;SDS011;4244;48.684;9.028;2023-05-10T03:22:24;2.03;;;1.00;;
8413;SDS011;4244;48.684;9.028;2023-05-10T03:24:55;1.57;;;1.30;;
8413;SDS011;4244;48.684;9.028;2023-05-10T03:27:23;1.83;;;1.10;;
8413;SDS011;4244;48.684;9.028;2023-05-10T03:29:49;1.53;;;1.13;;
8413;SDS011;4244;48.684;9.028;2023-05-10T03:32:16;1.77;;;1.13;;
8413;SDS011;4244;48.684;9.028;2023-05-10T03:34:42;1.30;;;1.10;;
8413;SDS011;4244;48.684;9.028;2023-05-10T03:37:10;4.03;;;1.73;;
8413;SDS011;4244;48.684;9.028;2023-05-10T03:39:36;1.80;;;1.40;;
8413;SDS011;4244;48.684;9.028;2023-05-10T03:42:02;1.70;;;1.43;;
8413;SDS011;4244;48.684;9.028;2023-05-10T03:44:27;2.30;;;1.27;;
8413;SDS011;4244;48.684;9.028;2023-05-10T03:46:53;1.73;;;1.03;;
8413;SDS011;4244;48.684;9.028;2023-05-10T03:49:19;2.57;;;1.60;;
8413;SDS011;4244;48.684;9.028;2023-05-10T03:51:44;2.47;;;1.30;;
8413;SDS011;4244;48.684;9.028;2023-05-10T03:54:10;1.93;;;1.70;;
8413;SDS011;4244;48.684;9.028;2023-05-10T03:56:36;2.20;;;1.37;;
8413;SDS011;4244;48.684;9.028;2023-05-10T03:59:01;3.20;;;1.50;;
8413;SDS011;4244;48.684;9.028;2023-05-10T04:01:32;2.30;;;1.40;;
8413;SDS011;4244;48.684;9.028;2023-05-10T04:03:58;1.30;;;1.10;;
8413;SDS011;4244;48.684;9.028;2023-05-10T04:06:24;2.60;;;1.30;;
8413;SDS011;4244;48.684;9.028;2023-05-10T04:08:49;2.13;;;1.67;;
8413;SDS011;4244;48.684;9.028;2023-05-10T04:11:15;1.73;;;1.33;;
8413;SDS011;4244;48.684;9.028;2023-05-10T04:13:41;1.73;;;1.60;;
8413;SDS011;4244;48.684;9.028;2023-05-10T04:16:08;1.80;;;1.27;;
8413;SDS011;4244;48.684;9.028;2023-05-10T04:18:34;1.60;;;1.30;;
8413;SDS011;4244;48.684;9.028;2023-05-10T04:20:59;2.57;;;1.70;;
8413;SDS011;4244;48.684;9.028;2023-05-10T04:23:26;2.50;;;1.50;;
8413;SDS011;4244;48.684;9.028;2023-05-10T04:25:52;1.50;;;1.37;;
8413;SDS011;4244;48.684;9.028;2023-05-10T04:28:18;1.43;;;1.30;;
8413;SDS011;4244;48.684;9.028;2023-05-10T04:30:43;1.50;;;1.30;;
8413;SDS011;4244;48.684;9.028;2023-05-10T04:33:09;2.70;;;1.57;;
8413;SDS011;4244;48.684;9.028;2023-05-10T04:35:35;2.00;;;1.20;;
8413;SDS011;4244;48.684;9.028;2023-05-10T04:38:00;3.10;;;1.57;;
8413;SDS011;4244;48.684;9.028;2023-05-10T04:40:26;2.60;;;1.50;;
8413;SDS011;4244;48.684;9.028;2023-05-10T04:42:52;2.67;;;1.50;;
8413;SDS011;4244;48.684;9.028;2023-05-10T04:45:17;1.40;;;1.30;;
8413;SDS011;4244;48.684;9.028;2023-05-10T04:47:43;2.70;;;1.50;;
8413;SDS011;4244;48.684;9.028;2023-05-10T04:50:09;3.03;;;1.57;;
8413;SDS011;4244;48.684;9.028;2023-05-10T04:52:34;1.40;;;1.30;;
8413;SDS011;4244;48.684;9.028;2023-05-10T04:55:01;1.93;;;1.50;;
8413;SDS011;4244;48.684;9.028;2023-05-10T04:57:27;1.60;;;1.47;;
8413;SDS011;4244;48.684;9.028;2023-05-10T04:59:52;1.70;;;1.13;;
8413;SDS011;4244;48.684;9.028;2023-05-10T05:02:18;3.00;;;1.40;;
8413;SDS011;4244;48.684;9.028;2023-05-10T05:04:44;1.83;;;1.30;;
8413;SDS011;4244;48.684;9.028;2023-05-10T05:07:09;1.70;;;1.60;;
8413;SDS011;4244;48.684;9.028;2023-05-10T05:09:35;1.40;;;1.27;;
8413;SDS011;4244;48.684;9.028;2023-05-10T05:12:01;1.20;;;1.10;;
8413;SDS011;4244;48.684;9.028;2023-05-10T05:14:26;2.10;;;1.30;;
8413;SDS011;4244;48.684;9.028;2023-05-10T05:16:52;2.43;;;1.10;;
8413;SDS011;4244;48.684;9.028;2023-05-10T05:19:18;3.10;;;1.43;;
8413;SDS011;4244;48.684;9.028;2023-05-10T05:21:43;4.40;;;1.43;;
8413;SDS011;4244;48.684;9.028;2023-05-10T05:24:09;2.60;;;1.50;;
8413;SDS011;4244;48.684;9.028;2023-05-10T05:26:36;1.70;;;1.43;;
8413;SDS011;4244;48.684;9.028;2023-05-10T05:29:01;4.00;;;1.60;;
8413;SDS011;4244;48.684;9.028;2023-05-10T05:31:28;2.37;;;1.27;;
8413;SDS011;4244;48.684;9.028;2023-05-10T05:33:53;2.00;;;1.63;;
8413;SDS011;4244;48.684;9.028;2023-05-10T05:36:20;3.33;;;2.00;;
8413;SDS011;4244;48.684;9.028;2023-05-10T05:38:47;1.60;;;1.33;;
8413;SDS011;4244;48.684;9.028;2023-05-10T05:41:13;1.57;;;1.30;;
8413;SDS011;4244;48.684;9.028;2023-05-10T05:43:38;2.20;;;1.67;;
8413;SDS011;4244;48.684;9.028;2023-05-10T05:46:04;2.07;;;1.30;;
8413;SDS011;4244;48.684;9.028;2023-05-10T05:48:30;2.77;;;1.50;;
8413;SDS011;4244;48.684;9.028;2023-05-10T05:50:56;2.03;;;1.53;;
8413;SDS011;4244;48.684;9.028;2023-05-10T05:53:22;1.70;;;1.40;;
8413;SDS011;4244;48.684;9.028;2023-05-10T05:55:55;2.30;;;1.50;;
8413;SDS011;4244;48.684;9.028;2023-05-10T05:58:21;2.27;;;2.07;;
8413;SDS011;4244;48.684;9.028;2023-05-10T06:00:47;1.90;;;1.40;;
8413;SDS011;4244;48.684;9.028;2023-05-10T06:03:13;3.70;;;1.47;;
8413;SDS011;4244;48.684;9.028;2023-05-10T06:05:39;2.10;;;1.63;;
8413;SDS011;4244;48.684;9.028;2023-05-10T06:08:04;1.80;;;1.30;;
8413;SDS011;4244;48.684;9.028;2023-05-10T06:10:31;1.73;;;1.63;;
8413;SDS011;4244;48.684;9.028;2023-05-10T06:12:57;2.10;;;1.70;;
8413;SDS011;4244;48.684;9.028;2023-05-10T06:15:22;2.23;;;1.70;;
8413;SDS011;4244;48.684;9.028;2023-05-10T06:17:48;3.10;;;1.60;;
8413;SDS011;4244;48.684;9.028;2023-05-10T06:20:16;2.07;;;1.80;;
8413;SDS011;4244;48.684;9.028;2023-05-10T06:22:42;2.43;;;1.80;;
8413;SDS011;4244;48.684;9.028;2023-05-10T06:25:08;3.00;;;1.63;;
8413;SDS011;4244;48.684;9.028;2023-05-10T06:27:34;2.10;;;1.67;;
8413;SDS011;4244;48.684;9.028;2023-05-10T06:30:00;3.87;;;1.73;;
8413;SDS011;4244;48.684;9.028;2023-05-10T06:32:26;1.70;;;1.60;;
8413;SDS011;4244;48.684;9.028;2023-05-10T06:34:51;1.40;;;1.30;;
8413;SDS011;4244;48.684;9.028;2023-05-10T06:37:17;1.97;;;1.50;;
8413;SDS011;4244;48.684;9.028;2023-05-10T06:39:43;2.23;;;1.30;;
8413;SDS011;4244;48.684;9.028;2023-05-10T06:42:08;2.13;;;1.80;;
8413;SDS011;4244;48.684;9.028;2023-05-10T06:44:34;5.87;;;2.13;;
8413;SDS011;4244;48.684;9.028;2023-05-10T06:47:00;2.13;;;1.63;;
8413;SDS011;4244;48.684;9.028;2023-05-10T06:49:25;2.60;;;1.57;;
8413;SDS011;4244;48.684;9.028;2023-05-10T06:51:51;4.53;;;1.90;;
8413;SDS011;4244;48.684;9.028;2023-05-10T06:54:17;3.73;;;1.60;;
8413;SDS011;4244;48.684;9.028;2023-05-10T06:56:42;2.30;;;1.80;;
8413;SDS011;4244;48.684;9.028;2023-05-10T06:59:08;3.00;;;1.80;;
8413;SDS011;4244;48.684;9.028;2023-05-10T07:01:34;3.27;;;2.00;;
8413;SDS011;4244;48.684;9.028;2023-05-10T07:03:59;1.70;;;1.60;;
8413;SDS011;4244;48.684;9.028;2023-05-10T07:06:25;3.53;;;1.80;;
8413;SDS011;4244;48.684;9.028;2023-05-10T07:08:52;2.50;;;1.90;;
8413;SDS011;4244;48.684;9.028;2023-05-10T07:11:18;2.87;;;1.90;;
8413;SDS011;4244;48.684;9.028;2023-05-10T07:13:43;3.23;;;1.77;;
8413;SDS011;4244;48.684;9.028;2023-05-10T07:16:11;3.10;;;2.10;;
8413;SDS011;4244;48.684;9.028;2023-05-10T07:18:36;1.60;;;1.30;;
8413;SDS011;4244;48.684;9.028;2023-05-10T07:21:02;2.63;;;2.03;;
8413;SDS011;4244;48.684;9.028;2023-05-10T07:23:28;2.37;;;1.77;;
8413;SDS011;4244;48.684;9.028;2023-05-10T07:25:55;2.00;;;1.57;;
8413;SDS011;4244;48.684;9.028;2023-05-10T07:28:22;2.17;;;1.80;;
8413;SDS011;4244;48.684;9.028;2023-05-10T07:30:49;2.50;;;1.30;;
8413;SDS011;4244;48.684;9.028;2023-05-10T07:33:15;3.30;;;1.83;;
8413;SDS011;4244;48.684;9.028;2023-05-10T07:35:41;2.83;;;1.50;;
8413;SDS011;4244;48.684;9.028;2023-05-10T07:38:07;4.03;;;1.77;;
8413;SDS011;4244;48.684;9.028;2023-05-10T07:40:33;2.30;;;1.77;;
8413;SDS011;4244;48.684;9.028;2023-05-10T07:42:59;1.83;;;1.53;;
8413;SDS011;4244;48.684;9.028;2023-05-10T07:45:26;3.60;;;1.70;;
8413;SDS011;4244;48.684;9.028;2023-05-10T07:47:52;2.57;;;1.60;;
8413;SDS011;4244;48.684;9.028;2023-05-10T07:50:18;1.50;;;1.30;;
8413;SDS011;4244;48.684;9.028;2023-05-10T07:52:44;3.80;;;1.53;;
8413;SDS011;4244;48.684;9.028;2023-05-10T07:55:09;1.30;;;1.07;;
8413;SDS011;4244;48.684;9.028;2023-05-10T07:57:35;1.93;;;1.10;;
8413;SDS011;4244;48.684;9.028;2023-05-10T08:00:01;1.37;;;0.97;;
8413;SDS011;4244;48.684;9.028;2023-05-10T08:02:27;1.50;;;1.30;;
8413;SDS011;4244;48.684;9.028;2023-05-10T08:04:53;1.40;;;1.07;;
8413;SDS011;4244;48.684;9.028;2023-05-10T08:07:19;1.83;;;1.07;;
8413;SDS011;4244;48.684;9.028;2023-05-10T08:09:44;1.43;;;1.03;;
8413;SDS011;4244;48.684;9.028;2023-05-10T08:12:10;1.40;;;0.97;;
8413;SDS011;4244;48.684;9.028;2023-05-10T08:14:36;1.13;;;0.87;;
8413;SDS011;4244;48.684;9.028;2023-05-10T08:17:02;1.80;;;1.27;;
8413;SDS011;4244;48.684;9.028;2023-05-10T08:19:28;3.10;;;1.00;;
8413;SDS011;4244;48.684;9.028;2023-05-10T08:21:54;1.27;;;0.60;;
8413;SDS011;4244;48.684;9.028;2023-05-10T08:24:22;1.40;;;0.70;;
8413;SDS011;4244;48.684;9.028;2023-05-10T08:26:48;2.27;;;1.13;;
8413;SDS011;4244;48.684;9.028;2023-05-10T08:29:14;1.47;;;0.70;;
8413;SDS011;4244;48.684;9.028;2023-05-10T08:31:40;2.57;;;0.60;;
8413;SDS011;4244;48.684;9.028;2023-05-10T08:34:06;3.70;;;0.87;;
8413;SDS011;4244;48.684;9.028;2023-05-10T08:36:31;1.20;;;0.97;;
8413;SDS011;4244;48.684;9.028;2023-05-10T08:38:58;1.63;;;0.90;;
8413;SDS011;4244;48.684;9.028;2023-05-10T08:41:24;5.10;;;0.80;;
8413;SDS011;4244;48.684;9.028;2023-05-10T08:43:50;0.97;;;0.67;;
8413;SDS011;4244;48.684;9.028;2023-05-10T08:46:17;1.17;;;0.70;;
8413;SDS011;4244;48.684;9.028;2023-05-10T08:48:44;1.00;;;0.50;;
8413;SDS011;4244;48.684;9.028;2023-05-10T08:51:14;1.40;;;0.73;;
8413;SDS011;4244;48.684;9.028;2023-05-10T08:53:41;0.97;;;0.70;;
8413;SDS011;4244;48.684;9.028;2023-05-10T08:56:07;1.90;;;0.60;;
8413;SDS011;4244;48.684;9.028;2023-05-10T08:58:33;0.90;;;0.67;;
8413;SDS011;4244;48.684;9.028;2023-05-10T09:00:59;1.17;;;0.70;;
8413;SDS011;4244;48.684;9.028;2023-05-10T09:03:25;2.23;;;1.10;;
8413;SDS011;4244;48.684;9.028;2023-05-10T09:05:51;2.07;;;0.80;;
8413;SDS011;4244;48.684;9.028;2023-05-10T09:08:17;1.17;;;0.70;;
8413;SDS011;4244;48.684;9.028;2023-05-10T09:10:43;1.00;;;0.60;;
8413;SDS011;4244;48.684;9.028;2023-05-10T09:13:12;2.33;;;0.97;;
8413;SDS011;4244;48.684;9.028;2023-05-10T09:15:40;1.30;;;0.90;;
8413;SDS011;4244;48.684;9.028;2023-05-10T09:18:06;1.10;;;0.67;;
8413;SDS011;4244;48.684;9.028;2023-05-10T09:20:31;3.00;;;0.60;;
8413;SDS011;4244;48.684;9.028;2023-05-10T09:22:57;2.93;;;0.77;;
8413;SDS011;4244;48.684;9.028;2023-05-10T09:25:23;0.80;;;0.50;;
8413;SDS011;4244;48.684;9.028;2023-05-10T09:27:49;2.37;;;0.90;;
8413;SDS011;4244;48.684;9.028;2023-05-10T09:30:23;3.27;;;0.63;;
8413;SDS011;4244;48.684;9.028;2023-05-10T09:32:50;1.00;;;0.60;;
8413;SDS011;4244;48.684;9.028;2023-05-10T09:35:17;2.03;;;0.57;;
8413;SDS011;4244;48.684;9.028;2023-05-10T09:37:48;1.00;;;0.60;;
8413;SDS011;4244;48.684;9.028;2023-05-10T09:40:16;1.10;;;0.73;;
8413;SDS011;4244;48.684;9.028;2023-05-10T09:45:20;1.40;;;0.60;;
8413;SDS011;4244;48.684;9.028;2023-05-10T09:47:50;1.40;;;0.60;;
8413;SDS011;4244;48.684;9.028;2023-05-10T09:50:16;1.27;;;0.60;;
8413;SDS011;4244;48.684;9.028;2023-05-10T09:53:00;1.00;;;0.40;;
8413;SDS011;4244;48.684;9.028;2023-05-10T09:55:46;1.20;;;0.43;;
8413;SDS011;4244;48.684;9.028;2023-05-10T09:58:14;2.00;;;0.77;;
8413;SDS011;4244;48.684;9.028;2023-05-10T10:00:40;1.30;;;0.50;;
8413;SDS011;4244;48.684;9.028;2023-05-10T10:03:12;0.77;;;0.40;;
8413;SDS011;4244;48.684;9.028;2023-05-10T10:05:42;1.87;;;0.60;;
8413;SDS011;4244;48.684;9.028;2023-05-10T10:08:09;1.23;;;0.60;;
8413;SDS011;4244;48.684;9.028;2023-05-10T10:10:35;1.10;;;0.50;;
8413;SDS011;4244;48.684;9.028;2023-05-10T10:13:01;1.70;;;0.43;;
8413;SDS011;4244;48.684;9.028;2023-05-10T10:15:27;3.70;;;0.70;;
8413;SDS011;4244;48.684;9.028;2023-05-10T10:17:53;1.20;;;0.60;;
8413;SDS011;4244;48.684;9.028;2023-05-10T10:20:19;1.13;;;0.63;;
8413;SDS011;4244;48.684;9.028;2023-05-10T10:22:47;1.57;;;0.80;;
8413;SDS011;4244;48.684;9.028;2023-05-10T10:25:13;1.53;;;0.70;;
8413;SDS011;4244;48.684;9.028;2023-05-10T10:36:05;1.30;;;0.63;;
8413;SDS011;4244;48.684;9.028;2023-05-10T10:38:38;1.23;;;0.70;;
8413;SDS011;4244;48.684;9.028;2023-05-10T10:50:22;1.00;;;0.60;;
8413;SDS011;4244;48.684;9.028;2023-05-10T10:55:07;3.30;;;0.83;;
8413;SDS011;4244;48.684;9.028;2023-05-10T11:02:57;3.30;;;1.20;;
8413;SDS011;4244;48.684;9.028;2023-05-10T11:08:09;1.67;;;1.00;;
8413;SDS011;4244;48.684;9.028;2023-05-10T11:10:35;2.20;;;1.17;;
8413;SDS011;4244;48.684;9.028;2023-05-10T11:13:10;1.43;;;0.70;;
8413;SDS011;4244;48.684;9.028;2023-05-10T11:15:37;2.00;;;0.90;;
8413;SDS011;4244;48.684;9.028;2023-05-10T11:18:18;2.00;;;0.80;;
8413;SDS011;4244;48.684;9.028;2023-05-10T11:20:52;1.77;;;0.90;;
8413;SDS011;4244;48.684;9.028;2023-05-10T11:23:21;1.30;;;0.87;;
8413;SDS011;4244;48.684;9.028;2023-05-10T11:25:47;2.23;;;0.70;;
8413;SDS011;4244;48.684;9.028;2023-05-10T11:28:16;1.53;;;0.87;;
8413;SDS011;4244;48.684;9.028;2023-05-10T11:30:43;1.30;;;0.40;;
8413;SDS011;4244;48.684;9.028;2023-05-10T11:33:09;1.83;;;0.87;;
8413;SDS011;4244;48.684;9.028;2023-05-10T11:35:40;3.20;;;0.77;;
8413;SDS011;4244;48.684;9.028;2023-05-10T11:38:06;2.73;;;1.83;;
8413;SDS011;4244;48.684;9.028;2023-05-10T11:40:33;1.30;;;0.60;;
8413;SDS011;4244;48.684;9.028;2023-05-10T11:42:59;1.23;;;0.70;;
8413;SDS011;4244;48.684;9.028;2023-05-10T11:45:25;1.67;;;0.77;;
8413;SDS011;4244;48.684;9.028;2023-05-10T11:47:53;2.17;;;0.90;;
8413;SDS011;4244;48.684;9.028;2023-05-10T11:50:18;1.20;;;0.60;;
8413;SDS011;4244;48.684;9.028;2023-05-10T11:52:44;3.17;;;0.80;;
8413;SDS011;4244;48.684;9.028;2023-05-10T11:55:10;2.53;;;1.40;;
8413;SDS011;4244;48.684;9.028;2023-05-10T11:57:35;1.70;;;1.00;;
8413;SDS011;4244;48.684;9.028;2023-05-10T12:00:03;4.10;;;1.00;;
8413;SDS011;4244;48.684;9.028;2023-05-10T12:02:30;4.23;;;1.50;;
8413;SDS011;4244;48.684;9.028;2023-05-10T12:04:56;4.63;;;1.43;;
8413;SDS011;4244;48.684;9.028;2023-05-10T12:07:21;1.40;;;0.80;;
8413;SDS011;4244;48.684;9.028;2023-05-10T12:10:06;1.77;;;0.80;;
8413;SDS011;4244;48.684;9.028;2023-05-10T12:12:38;1.30;;;0.83;;
8413;SDS011;4244;48.684;9.028;2023-05-10T12:15:09;3.10;;;1.20;;
8413;SDS011;4244;48.684;9.028;2023-05-10T12:17:47;2.30;;;1.10;;
8413;SDS011;4244;48.684;9.028;2023-05-10T12:20:21;2.60;;;0.97;;
8413;SDS011;4244;48.684;9.028;2023-05-10T12:22:50;2.20;;;0.70;;
8413;SDS011;4244;48.684;9.028;2023-05-10T12:25:17;3.00;;;1.20;;
8413;SDS011;4244;48.684;9.028;2023-05-10T12:27:47;1.93;;;0.80;;
8413;SDS011;4244;48.684;9.028;2023-05-10T12:30:21;2.87;;;1.07;;
8413;SDS011;4244;48.684;9.028;2023-05-10T12:32:47;4.90;;;1.20;;
8413;SDS011;4244;48.684;9.028;2023-05-10T12:35:13;3.00;;;1.20;;
8413;SDS011;4244;48.684;9.028;2023-05-10T12:37:39;2.73;;;1.10;;
8413;SDS011;4244;48.684;9.028;2023-05-10T12:40:06;5.47;;;1.20;;
8413;SDS011;4244;48.684;9.028;2023-05-10T12:42:33;1.90;;;1.00;;
8413;SDS011;4244;48.684;9.028;2023-05-10T12:45:00;2.80;;;1.10;;
8413;SDS011;4244;48.684;9.028;2023-05-10T12:47:27;2.30;;;1.17;;
8413;SDS011;4244;48.684;9.028;2023-05-10T12:49:53;2.20;;;1.10;;
8413;SDS011;4244;48.684;9.028;2023-05-10T12:52:19;4.10;;;1.00;;
8413;SDS011;4244;48.684;9.028;2023-05-10T12:54:46;1.83;;;1.17;;
8413;SDS011;4244;48.684;9.028;2023-05-10T12:57:12;2.70;;;1.10;;
8413;SDS011;4244;48.684;9.028;2023-05-10T12:59:38;3.30;;;1.10;;
8413;SDS011;4244;48.684;9.028;2023-05-10T13:02:04;2.70;;;1.03;;
8413;SDS011;4244;48.684;9.028;2023-05-10T13:04:30;1.30;;;0.70;;
8413;SDS011;4244;48.684;9.028;2023-05-10T13:06:56;2.00;;;1.10;;
8413;SDS011;4244;48.684;9.028;2023-05-10T13:09:24;4.30;;;1.20;;
8413;SDS011;4244;48.684;9.028;2023-05-10T13:11:51;1.53;;;0.90;;
8413;SDS011;4244;48.684;9.028;2023-05-10T13:14:19;1.57;;;0.90;;
8413;SDS011;4244;48.684;9.028;2023-05-10T13:16:45;1.60;;;0.70;;
8413;SDS011;4244;48.684;9.028;2023-05-10T13:19:12;1.60;;;0.70;;
8413;SDS011;4244;48.684;9.028;2023-05-10T13:21:38;3.33;;;1.03;;
8413;SDS011;4244;48.684;9.028;2023-05-10T13:24:06;2.47;;;0.93;;
8413;SDS011;4244;48.684;9.028;2023-05-10T13:26:32;3.67;;;1.30;;
8413;SDS011;4244;48.684;9.028;2023-05-10T13:28:57;2.10;;;0.90;;
8413;SDS011;4244;48.684;9.028;2023-05-10T13:31:23;2.93;;;1.23;;
8413;SDS011;4244;48.684;9.028;2023-05-10T13:33:49;3.27;;;1.20;;
8413;SDS011;4244;48.684;9.028;2023-05-10T13:36:15;2.30;;;0.97;;
8413;SDS011;4244;48.684;9.028;2023-05-10T13:38:40;3.23;;;1.00;;
8413;SDS011;4244;48.684;9.028;2023-05-10T13:41:06;1.73;;;0.83;;
8413;SDS011;4244;48.684;9.028;2023-05-10T13:43:31;1.73;;;1.00;;
8413;SDS011;4244;48.684;9.028;2023-05-10T13:45:57;1.70;;;0.93;;
8413;SDS011;4244;48.684;9.028;2023-05-10T13:48:23;2.03;;;0.90;;
8413;SDS011;4244;48.684;9.028;2023-05-10T13:50:48;1.47;;;0.70;;
8413;SDS011;4244;48.684;9.028;2023-05-10T13:53:14;3.03;;;1.40;;
8413;SDS011;4244;48.684;9.028;2023-05-10T13:55:40;2.80;;;1.50;;
8413;SDS011;4244;48.684;9.028;2023-05-10T13:58:06;2.97;;;1.73;;
8413;SDS011;4244;48.684;9.028;2023-05-10T14:00:32;4.70;;;1.30;;
8413;SDS011;4244;48.684;9.028;2023-05-10T14:02:58;1.67;;;0.80;;
8413;SDS011;4244;48.684;9.028;2023-05-10T14:05:24;2.23;;;1.10;;
8413;SDS011;4244;48.684;9.028;2023-05-10T14:07:49;5.50;;;1.20;;
8413;SDS011;4244;48.684;9.028;2023-05-10T14:10:15;3.80;;;0.93;;
8413;SDS011;4244;48.684;9.028;2023-05-10T14:12:41;1.83;;;0.97;;
8413;SDS011;4244;48.684;9.028;2023-05-10T14:15:07;1.70;;;1.00;;
8413;SDS011;4244;48.684;9.028;2023-05-10T14:17:35;1.80;;;1.00;;
8413;SDS011;4244;48.684;9.028;2023-05-10T14:20:01;1.37;;;0.90;;
8413;SDS011;4244;48.684;9.028;2023-05-10T14:22:27;2.53;;;1.30;;
8413;SDS011;4244;48.684;9.028;2023-05-10T14:24:53;2.40;;;1.20;;
8413;SDS011;4244;48.684;9.028;2023-05-10T14:27:18;2.40;;;1.03;;
8413;SDS011;4244;48.684;9.028;2023-05-10T14:29:44;3.43;;;1.30;;
8413;SDS011;4244;48.684;9.028;2023-05-10T14:32:10;1.67;;;0.90;;
8413;SDS011;4244;48.684;9.028;2023-05-10T14:34:35;2.17;;;0.93;;
8413;SDS011;4244;48.684;9.028;2023-05-10T14:37:01;1.10;;;0.73;;
8413;SDS011;4244;48.684;9.028;2023-05-10T14:39:27;2.13;;;1.00;;
8413;SDS011;4244;48.684;9.028;2023-05-10T14:41:55;1.20;;;0.90;;
8413;SDS011;4244;48.684;9.028;2023-05-10T14:44:21;1.60;;;1.00;;
8413;SDS011;4244;48.684;9.028;2023-05-10T14:46:47;1.43;;;1.07;;
8413;SDS011;4244;48.684;9.028;2023-05-10T14:49:13;2.10;;;0.70;;
8413;SDS011;4244;48.684;9.028;2023-05-10T14:51:39;2.50;;;1.10;;
8413;SDS011;4244;48.684;9.028;2023-05-10T14:54:05;1.93;;;0.70;;
8413;SDS011;4244;48.684;9.028;2023-05-10T14:56:31;2.90;;;1.03;;
8413;SDS011;4244;48.684;9.028;2023-05-10T14:58:57;4.07;;;0.90;;
8413;SDS011;4244;48.684;9.028;2023-05-10T15:01:22;2.20;;;1.07;;
8413;SDS011;4244;48.684;9.028;2023-05-10T15:03:48;4.33;;;1.00;;
8413;SDS011;4244;48.684;9.028;2023-05-10T15:06:14;1.53;;;1.03;;
8413;SDS011;4244;48.684;9.028;2023-05-10T15:08:43;1.10;;;0.73;;
8413;SDS011;4244;48.684;9.028;2023-05-10T15:11:09;1.60;;;0.80;;
8413;SDS011;4244;48.684;9.028;2023-05-10T15:13:35;1.70;;;0.90;;
8413;SDS011;4244;48.684;9.028;2023-05-10T15:16:01;2.10;;;1.20;;
8413;SDS011;4244;48.684;9.028;2023-05-10T15:18:28;2.73;;;1.20;;
8413;SDS011;4244;48.684;9.028;2023-05-10T15:20:55;6.77;;;1.20;;
8413;SDS011;4244;48.684;9.028;2023-05-10T15:23:23;1.80;;;0.83;;
8413;SDS011;4244;48.684;9.028;2023-05-10T15:25:49;1.37;;;0.77;;
8413;SDS011;4244;48.684;9.028;2023-05-10T15:28:15;2.70;;;1.00;;
8413;SDS011;4244;48.684;9.028;2023-05-10T15:30:40;1.87;;;1.10;;
8413;SDS011;4244;48.684;9.028;2023-05-10T15:33:06;1.57;;;0.60;;
8413;SDS011;4244;48.684;9.028;2023-05-10T15:35:33;1.60;;;0.80;;
8413;SDS011;4244;48.684;9.028;2023-05-10T15:38:00;1.80;;;0.70;;
8413;SDS011;4244;48.684;9.028;2023-05-10T15:40:26;4.17;;;1.00;;
8413;SDS011;4244;48.684;9.028;2023-05-10T15:42:52;1.00;;;0.60;;
8413;SDS011;4244;48.684;9.028;2023-05-10T15:45:17;3.23;;;0.70;;
8413;SDS011;4244;48.684;9.028;2023-05-10T15:47:43;1.97;;;0.60;;
8413;SDS011;4244;48.684;9.028;2023-05-10T15:50:09;1.87;;;1.13;;
8413;SDS011;4244;48.684;9.028;2023-05-10T15:52:36;5.63;;;1.90;;
8413;SDS011;4244;48.684;9.028;2023-05-10T15:55:02;1.30;;;0.80;;
8413;SDS011;4244;48.684;9.028;2023-05-10T15:57:28;1.83;;;1.00;;
8413;SDS011;4244;48.684;9.028;2023-05-10T15:59:54;1.73;;;0.80;;
8413;SDS011;4244;48.684;9.028;2023-05-10T16:02:20;1.60;;;1.10;;